Time;durP1;ratioP1;P1;durP2;ratioP2;P2;SDS_P1;SDS_P2;PMS_P1;PMS_P2;Temp;Humidity;BMP_temperature;BMP_pressure;BME280_temperature;BME280_humidity;BME280_pressure;Samples;Min_cycle;Max_cycle;Signal;HPM_P1;HPM_P2
2022/07/31 00:00:37;;;;;;;15.33;12.47;;;18.00;99.90;;;;;;5072554;28;20492;-71
2022/07/31 00:03:02;;;;;;;17.43;13.97;;;18.00;99.90;;;;;;5071228;28;20212;-75
2022/07/31 00:05:29;;;;;;;15.60;12.73;;;18.00;99.90;;;;;;5071511;28;20413;-76
2022/07/31 00:07:56;;;;;;;17.50;12.33;;;18.00;99.90;;;;;;5073078;28;20198;-76
2022/07/31 00:10:22;;;;;;;13.23;11.03;;;18.00;99.90;;;;;;5091664;28;20901;-72
2022/07/31 00:12:48;;;;;;;18.90;14.17;;;18.00;99.90;;;;;;5091529;28;20477;-71
2022/07/31 00:15:13;;;;;;;22.33;13.90;;;18.00;99.90;;;;;;5092370;28;20542;-76
2022/07/31 00:17:40;;;;;;;23.30;13.93;;;17.90;99.90;;;;;;5088834;28;20217;-76
2022/07/31 00:20:07;;;;;;;19.90;13.13;;;17.90;99.90;;;;;;5091088;28;20184;-77
2022/07/31 00:22:34;;;;;;;21.67;14.50;;;17.90;99.90;;;;;;5091563;28;20893;-76
2022/07/31 00:25:00;;;;;;;18.03;13.80;;;17.90;99.90;;;;;;5096139;28;20403;-72
2022/07/31 00:27:25;;;;;;;18.53;13.97;;;17.90;99.90;;;;;;5094181;28;21012;-72
2022/07/31 00:29:51;;;;;;;15.87;13.87;;;17.80;99.90;;;;;;5077357;28;20468;-71
2022/07/31 00:32:17;;;;;;;23.43;15.20;;;17.80;99.90;;;;;;5075571;28;20218;-73
2022/07/31 00:34:42;;;;;;;17.00;13.97;;;17.80;99.90;;;;;;5074353;28;20208;-77
2022/07/31 00:37:08;;;;;;;18.43;13.63;;;17.80;99.90;;;;;;5073306;28;20198;-76
2022/07/31 00:39:35;;;;;;;15.50;12.80;;;17.80;99.90;;;;;;5074059;28;20178;-72
2022/07/31 00:42:01;;;;;;;16.10;13.80;;;17.80;99.90;;;;;;5074672;28;20774;-72
2022/07/31 00:44:27;;;;;;;20.03;15.33;;;17.80;99.90;;;;;;5074728;28;20412;-72
2022/07/31 00:46:53;;;;;;;18.77;14.80;;;17.80;99.90;;;;;;5057110;28;21048;-72
2022/07/31 00:49:19;;;;;;;21.07;14.27;;;17.80;99.90;;;;;;5075210;28;20424;-77
2022/07/31 00:51:45;;;;;;;21.70;15.30;;;17.90;99.90;;;;;;5073836;28;20906;-76
2022/07/31 00:54:11;;;;;;;21.40;16.60;;;17.80;99.90;;;;;;5075507;28;20408;-76
2022/07/31 00:56:37;;;;;;;26.87;16.17;;;17.80;99.90;;;;;;5074449;28;20535;-76
2022/07/31 00:59:03;;;;;;;24.97;16.00;;;17.80;99.90;;;;;;5082303;28;20198;-74
2022/07/31 01:01:29;;;;;;;20.87;15.17;;;17.80;99.90;;;;;;5095497;28;20189;-71
2022/07/31 01:03:55;;;;;;;24.00;17.40;;;17.80;99.90;;;;;;5095636;28;20469;-76
2022/07/31 01:06:21;;;;;;;18.43;15.10;;;17.80;99.90;;;;;;5094852;28;20404;-77
2022/07/31 01:08:48;;;;;;;29.70;17.70;;;17.90;99.90;;;;;;5092423;28;20458;-78
2022/07/31 01:11:43;;;;;;;23.67;15.50;;;17.80;99.90;;;;;;5093775;28;20197;-74
2022/07/31 01:14:09;;;;;;;24.17;17.47;;;17.80;99.90;;;;;;5090085;28;20411;-72
2022/07/31 01:16:39;;;;;;;25.00;17.83;;;17.70;99.90;;;;;;5094394;28;20482;-77
2022/07/31 01:19:17;;;;;;;23.87;16.70;;;17.60;99.90;;;;;;5085424;28;20483;-73
2022/07/31 01:21:58;;;;;;;21.30;16.40;;;17.70;99.90;;;;;;5075137;28;20466;-73
2022/07/31 01:24:32;;;;;;;21.07;14.73;;;17.70;99.90;;;;;;5073681;28;20412;-75
2022/07/31 01:27:07;;;;;;;21.90;16.83;;;17.80;99.90;;;;;;5073883;28;20457;-71
2022/07/31 01:29:45;;;;;;;21.13;15.43;;;17.80;99.90;;;;;;5072292;28;20466;-74
2022/07/31 01:32:20;;;;;;;18.67;15.73;;;17.80;99.90;;;;;;5074877;28;20499;-77
2022/07/31 01:34:51;;;;;;;24.37;16.13;;;17.90;99.90;;;;;;5074730;28;20970;-77
2022/07/31 01:37:30;;;;;;;22.03;17.07;;;17.80;99.90;;;;;;5072087;28;20865;-72
2022/07/31 01:40:04;;;;;;;18.33;14.10;;;17.80;99.90;;;;;;5083809;28;20454;-77
2022/07/31 01:42:33;;;;;;;20.03;14.40;;;17.80;99.90;;;;;;5073254;28;20785;-72
2022/07/31 01:45:00;;;;;;;20.07;15.90;;;17.80;99.90;;;;;;5073405;28;20448;-71
2022/07/31 01:47:28;;;;;;;20.83;14.70;;;17.70;99.90;;;;;;5072208;28;20446;-72
2022/07/31 01:49:54;;;;;;;18.87;15.30;;;17.70;99.90;;;;;;5073745;28;20495;-77
2022/07/31 01:52:23;;;;;;;20.50;14.90;;;17.70;99.90;;;;;;5077223;28;20452;-71
2022/07/31 01:54:50;;;;;;;23.13;15.77;;;17.80;99.90;;;;;;5074249;28;20476;-71
2022/07/31 01:57:17;;;;;;;18.87;14.63;;;17.70;99.90;;;;;;5071865;28;20484;-77
2022/07/31 01:59:44;;;;;;;18.80;14.80;;;17.70;99.90;;;;;;5074063;28;20397;-72
2022/07/31 02:02:11;;;;;;;20.87;17.07;;;17.70;99.90;;;;;;5088880;28;20485;-77
2022/07/31 02:04:38;;;;;;;19.77;16.00;;;17.60;99.90;;;;;;5094383;28;20446;-70
2022/07/31 02:07:04;;;;;;;21.57;15.20;;;17.60;99.90;;;;;;5092650;28;20450;-72
2022/07/31 02:09:32;;;;;;;18.90;14.03;;;17.60;99.90;;;;;;5094242;28;20754;-74
2022/07/31 02:11:59;;;;;;;21.10;15.07;;;17.60;99.90;;;;;;5080736;28;20902;-77
2022/07/31 02:14:27;;;;;;;18.77;14.30;;;17.60;99.90;;;;;;5090150;28;20955;-76
2022/07/31 02:16:53;;;;;;;19.03;13.33;;;17.60;99.90;;;;;;5093123;28;20448;-73
2022/07/31 02:19:21;;;;;;;20.67;14.20;;;17.60;99.90;;;;;;5093060;28;20737;-76
2022/07/31 02:21:46;;;;;;;20.60;14.60;;;17.60;99.90;;;;;;5081309;28;20428;-77
2022/07/31 02:24:12;;;;;;;19.40;15.33;;;17.60;99.90;;;;;;5071726;28;20416;-71
2022/07/31 02:26:39;;;;;;;17.87;15.50;;;17.60;99.90;;;;;;5071624;28;20342;-71
2022/07/31 02:29:07;;;;;;;19.47;14.63;;;17.60;99.90;;;;;;5073508;28;20197;-72
2022/07/31 02:31:35;;;;;;;18.03;13.93;;;17.60;99.90;;;;;;5084392;28;20925;-77
2022/07/31 02:34:01;;;;;;;25.13;13.90;;;17.50;99.90;;;;;;5093643;28;20445;-77
2022/07/31 02:36:32;;;;;;;19.47;16.00;;;17.60;99.90;;;;;;5091556;28;20459;-77
2022/07/31 02:38:58;;;;;;;24.60;17.60;;;17.60;99.90;;;;;;5087272;28;20541;-72
2022/07/31 02:41:24;;;;;;;20.60;14.00;;;17.60;99.90;;;;;;5073018;28;20397;-78
2022/07/31 02:43:51;;;;;;;14.80;12.50;;;17.60;99.90;;;;;;5071753;28;20491;-76
2022/07/31 02:46:17;;;;;;;15.83;14.13;;;17.60;99.90;;;;;;5071997;28;20496;-78
2022/07/31 02:48:43;;;;;;;18.37;14.07;;;17.60;99.90;;;;;;5071518;28;20540;-77
2022/07/31 02:51:09;;;;;;;22.93;14.50;;;17.60;99.90;;;;;;5073240;28;20483;-77
2022/07/31 02:53:38;;;;;;;19.40;13.17;;;17.60;99.90;;;;;;5073330;28;20465;-72
2022/07/31 02:56:05;;;;;;;20.27;15.37;;;17.60;99.90;;;;;;5072158;28;20491;-73
2022/07/31 02:58:31;;;;;;;20.10;14.30;;;17.60;99.90;;;;;;5072332;28;20462;-73
2022/07/31 03:01:02;;;;;;;18.30;12.87;;;17.60;99.90;;;;;;5087981;28;20952;-77
2022/07/31 03:03:28;;;;;;;16.10;14.13;;;17.60;99.90;;;;;;5091857;28;20170;-77
2022/07/31 03:05:54;;;;;;;20.93;15.60;;;17.50;99.90;;;;;;5093084;28;20402;-76
2022/07/31 03:08:20;;;;;;;16.00;13.17;;;17.50;99.90;;;;;;5092529;28;20188;-77
2022/07/31 03:10:46;;;;;;;18.60;15.13;;;17.40;99.90;;;;;;5091571;28;20512;-71
2022/07/31 03:13:12;;;;;;;20.87;14.83;;;17.40;99.90;;;;;;5093037;28;20162;-71
2022/07/31 03:15:40;;;;;;;21.00;14.43;;;17.40;99.90;;;;;;5093243;28;20451;-77
2022/07/31 03:18:10;;;;;;;15.80;13.53;;;17.40;99.90;;;;;;5092155;28;20415;-76
2022/07/31 03:20:37;;;;;;;19.23;14.27;;;17.40;99.90;;;;;;5091544;28;20473;-71
2022/07/31 03:23:04;;;;;;;17.03;12.10;;;17.40;99.90;;;;;;5091258;28;20932;-77
2022/07/31 03:25:32;;;;;;;21.30;14.47;;;17.50;99.90;;;;;;5092702;28;20439;-71
2022/07/31 03:27:59;;;;;;;14.97;13.13;;;17.50;99.90;;;;;;5092070;28;20416;-71
2022/07/31 03:30:25;;;;;;;22.90;13.40;;;17.50;99.90;;;;;;5091370;28;20438;-72
2022/07/31 03:32:55;;;;;;;20.73;13.40;;;17.50;99.90;;;;;;5090746;28;20430;-71
2022/07/31 03:35:21;;;;;;;19.13;12.83;;;17.50;99.90;;;;;;5092879;28;20449;-76
2022/07/31 03:37:47;;;;;;;14.47;12.27;;;17.50;99.90;;;;;;5091984;28;20415;-71
2022/07/31 03:40:13;;;;;;;22.30;13.40;;;17.50;99.90;;;;;;5090317;28;20436;-77
2022/07/31 03:42:39;;;;;;;20.37;12.50;;;17.50;99.90;;;;;;5092794;28;20219;-71
2022/07/31 03:45:08;;;;;;;16.00;12.20;;;17.50;99.90;;;;;;5091600;28;20219;-73
2022/07/31 03:47:34;;;;;;;17.70;13.73;;;17.50;99.90;;;;;;5092051;28;20415;-71
2022/07/31 03:50:03;;;;;;;15.57;12.30;;;17.50;99.90;;;;;;5079747;28;20439;-76
2022/07/31 03:52:30;;;;;;;15.73;13.67;;;17.50;99.90;;;;;;5071480;28;20166;-72
2022/07/31 03:54:55;;;;;;;16.40;11.67;;;17.50;99.90;;;;;;5071625;28;20411;-77
2022/07/31 03:57:22;;;;;;;21.03;14.70;;;17.40;99.90;;;;;;5069920;28;20881;-76
2022/07/31 03:59:55;;;;;;;19.33;13.80;;;17.40;99.90;;;;;;5076025;28;20547;-77
2022/07/31 04:02:30;;;;;;;19.20;15.97;;;17.50;99.90;;;;;;5095443;28;20426;-71
2022/07/31 04:04:56;;;;;;;19.70;13.40;;;17.50;99.90;;;;;;5095371;28;20510;-76
2022/07/31 04:07:22;;;;;;;16.50;12.40;;;17.50;99.90;;;;;;5095605;28;20424;-71
2022/07/31 04:09:48;;;;;;;19.13;13.10;;;17.50;99.90;;;;;;5094676;28;20999;-77
2022/07/31 04:12:14;;;;;;;21.23;13.90;;;17.50;99.90;;;;;;5096743;28;20495;-71
2022/07/31 04:14:40;;;;;;;18.67;15.30;;;17.50;99.90;;;;;;5095011;28;20522;-74
2022/07/31 04:17:06;;;;;;;21.17;15.00;;;17.50;99.90;;;;;;5094712;28;20473;-77
2022/07/31 04:19:32;;;;;;;18.23;13.90;;;17.50;99.90;;;;;;5088961;28;20257;-77
2022/07/31 04:21:58;;;;;;;20.27;13.97;;;17.50;99.90;;;;;;5075956;28;20167;-71
2022/07/31 04:24:24;;;;;;;19.20;13.10;;;17.50;99.90;;;;;;5075953;28;20167;-71
2022/07/31 04:26:53;;;;;;;20.93;15.17;;;17.60;99.90;;;;;;5074810;28;20424;-75
2022/07/31 04:29:19;;;;;;;23.67;16.00;;;17.60;99.90;;;;;;5074396;28;20433;-77
2022/07/31 04:31:44;;;;;;;27.03;15.73;;;17.50;99.90;;;;;;5074551;28;20408;-71
2022/07/31 04:34:10;;;;;;;27.30;16.83;;;17.40;99.90;;;;;;5074003;28;20170;-76
2022/07/31 04:36:36;;;;;;;18.20;14.90;;;17.50;99.90;;;;;;5073498;28;20205;-71
2022/07/31 04:39:03;;;;;;;22.20;15.03;;;17.40;99.90;;;;;;5074913;28;20737;-71
2022/07/31 04:41:28;;;;;;;19.20;13.83;;;17.50;99.90;;;;;;5075671;28;20397;-71
2022/07/31 04:43:56;;;;;;;22.83;15.10;;;17.50;99.90;;;;;;5075606;28;20447;-71
2022/07/31 04:46:22;;;;;;;17.67;14.10;;;17.50;99.90;;;;;;5074823;28;20245;-75
2022/07/31 04:48:48;;;;;;;24.37;15.70;;;17.60;99.90;;;;;;5073866;28;20524;-76
2022/07/31 04:51:22;;;;;;;28.10;16.23;;;17.50;99.90;;;;;;5093772;28;20848;-76
2022/07/31 04:53:49;;;;;;;22.10;15.60;;;17.50;99.90;;;;;;5094390;28;20231;-71
2022/07/31 04:59:05;;;;;;;18.03;14.00;;;17.40;99.90;;;;;;5093479;28;20473;-71
2022/07/31 05:01:31;;;;;;;22.83;14.90;;;17.40;99.90;;;;;;5087208;28;21275;-71
2022/07/31 05:03:57;;;;;;;22.17;15.30;;;17.30;99.90;;;;;;5094771;28;20452;-77
2022/07/31 05:06:32;;;;;;;22.20;15.20;;;17.40;99.90;;;;;;5093403;28;20415;-71
2022/07/31 05:08:58;;;;;;;17.87;15.33;;;17.30;99.90;;;;;;5093654;28;20193;-76
2022/07/31 05:11:23;;;;;;;20.50;15.90;;;17.40;99.90;;;;;;5092609;28;20827;-71
2022/07/31 05:13:56;;;;;;;19.87;14.50;;;17.40;99.90;;;;;;5095329;28;20161;-76
2022/07/31 05:16:22;;;;;;;19.77;16.43;;;17.40;99.90;;;;;;5094450;28;20193;-69
2022/07/31 05:18:52;;;;;;;22.07;16.80;;;17.40;99.90;;;;;;5094224;28;20892;-77
2022/07/31 05:21:19;;;;;;;18.60;15.73;;;17.40;99.90;;;;;;5073552;28;20432;-71
2022/07/31 05:23:46;;;;;;;18.83;15.13;;;17.40;99.90;;;;;;5075163;28;20431;-76
2022/07/31 05:26:12;;;;;;;18.97;15.03;;;17.40;99.90;;;;;;5072881;28;20528;-71
2022/07/31 05:28:38;;;;;;;23.57;16.97;;;17.50;99.90;;;;;;5074333;28;20436;-70
2022/07/31 05:31:05;;;;;;;20.50;16.70;;;17.50;99.90;;;;;;5074131;28;20439;-72
2022/07/31 05:33:31;;;;;;;19.90;15.47;;;17.40;99.90;;;;;;5074980;28;20404;-77
2022/07/31 05:35:57;;;;;;;20.60;14.73;;;17.50;99.90;;;;;;5076083;28;20440;-74
2022/07/31 05:38:23;;;;;;;17.70;14.57;;;17.60;99.90;;;;;;5094235;28;20508;-74
2022/07/31 05:40:49;;;;;;;24.03;16.03;;;17.70;99.90;;;;;;5079584;28;20512;-74
2022/07/31 05:43:15;;;;;;;19.47;14.67;;;17.70;99.90;;;;;;5094860;28;20480;-73
2022/07/31 05:45:41;;;;;;;25.10;15.83;;;17.80;99.90;;;;;;5093680;28;20177;-76
2022/07/31 05:48:06;;;;;;;16.30;13.03;;;17.80;99.90;;;;;;5073914;28;20198;-74
2022/07/31 05:50:35;;;;;;;18.30;13.93;;;17.90;99.90;;;;;;5073051;28;20635;-77
2022/07/31 05:53:00;;;;;;;18.57;13.77;;;17.90;99.90;;;;;;5092090;28;20170;-76
2022/07/31 05:55:26;;;;;;;18.00;12.80;;;17.90;99.90;;;;;;5083256;28;21046;-77
2022/07/31 05:57:52;;;;;;;19.97;13.47;;;17.90;99.90;;;;;;5088738;28;20225;-73
2022/07/31 06:00:19;;;;;;;17.17;12.50;;;18.00;99.90;;;;;;5094244;28;20256;-76
2022/07/31 06:02:45;;;;;;;16.97;12.30;;;18.10;99.90;;;;;;5095449;28;20290;-75
2022/07/31 06:05:11;;;;;;;13.03;11.67;;;18.10;99.90;;;;;;5105629;28;20874;-75
2022/07/31 06:07:37;;;;;;;18.40;12.57;;;18.20;99.90;;;;;;5081494;28;20216;-76
2022/07/31 06:10:04;;;;;;;15.53;12.50;;;18.30;99.90;;;;;;5090557;28;20666;-76
2022/07/31 06:12:29;;;;;;;16.80;11.07;;;18.40;99.90;;;;;;5085991;28;20407;-75
2022/07/31 06:14:55;;;;;;;12.20;10.80;;;18.40;99.90;;;;;;5088121;28;20407;-76
2022/07/31 06:17:21;;;;;;;13.10;10.40;;;18.50;99.90;;;;;;5104994;28;20458;-73
2022/07/31 06:19:46;;;;;;;10.20;9.07;;;18.50;99.90;;;;;;5086420;28;20693;-76
2022/07/31 06:22:12;;;;;;;13.43;9.80;;;18.50;99.90;;;;;;5092542;28;20173;-72
2022/07/31 06:24:38;;;;;;;14.27;8.97;;;18.40;99.90;;;;;;5093036;28;20173;-77
2022/07/31 06:27:04;;;;;;;14.70;9.57;;;18.40;99.90;;;;;;5089292;28;20185;-74
2022/07/31 06:29:31;;;;;;;13.07;9.50;;;18.40;99.90;;;;;;5093280;28;20166;-73
2022/07/31 06:31:57;;;;;;;11.50;10.40;;;18.50;99.90;;;;;;5087871;28;20435;-74
2022/07/31 06:34:23;;;;;;;12.37;9.70;;;18.50;99.90;;;;;;5104842;28;20414;-74
2022/07/31 06:36:49;;;;;;;16.53;8.07;;;18.50;99.90;;;;;;5111757;28;20846;-76
2022/07/31 06:39:16;;;;;;;10.80;8.13;;;18.50;99.90;;;;;;5093612;28;20392;-76
2022/07/31 06:41:47;;;;;;;10.83;7.90;;;18.60;99.90;;;;;;5089515;28;20958;-73
2022/07/31 06:44:18;;;;;;;9.60;7.67;;;18.60;99.90;;;;;;5092818;28;20469;-74
2022/07/31 06:46:45;;;;;;;8.40;6.93;;;18.60;99.90;;;;;;5089139;28;20427;-72
2022/07/31 06:49:10;;;;;;;14.33;7.90;;;18.60;99.90;;;;;;5109484;28;20434;-73
2022/07/31 06:51:36;;;;;;;7.93;6.77;;;18.70;99.90;;;;;;5101418;28;20441;-73
2022/07/31 06:54:04;;;;;;;9.70;7.63;;;18.80;99.90;;;;;;5098269;28;20971;-77
2022/07/31 06:56:30;;;;;;;7.83;7.03;;;18.90;99.90;;;;;;5083318;28;20198;-75
2022/07/31 06:58:56;;;;;;;13.27;6.57;;;18.80;99.90;;;;;;5091899;28;20855;-76
2022/07/31 07:01:22;;;;;;;8.90;6.07;;;18.80;99.90;;;;;;5087134;28;20451;-76
2022/07/31 07:03:48;;;;;;;8.60;4.90;;;18.80;99.90;;;;;;5076396;28;20415;-71
2022/07/31 07:06:14;;;;;;;4.67;4.27;;;18.90;99.90;;;;;;5079408;28;20178;-76
2022/07/31 07:09:33;;;;;;;4.43;3.27;;;19.00;99.90;;;;;;5077502;28;20570;-76
2022/07/31 07:11:59;;;;;;;4.27;3.87;;;19.10;99.90;;;;;;5084636;28;20835;-77
2022/07/31 07:14:24;;;;;;;5.70;5.20;;;19.10;99.90;;;;;;5068618;28;20234;-70
2022/07/31 07:16:50;;;;;;;5.60;4.13;;;19.10;99.90;;;;;;5073598;28;20174;-77
2022/07/31 07:19:16;;;;;;;6.70;3.60;;;19.20;99.90;;;;;;5065141;28;20181;-72
2022/07/31 07:21:42;;;;;;;3.63;2.73;;;19.30;99.90;;;;;;5064803;28;20170;-72
2022/07/31 07:24:07;;;;;;;6.53;2.70;;;19.40;99.90;;;;;;5066781;28;20447;-68
2022/07/31 07:26:33;;;;;;;2.50;2.30;;;19.40;99.90;;;;;;5067981;28;20173;-75
2022/07/31 07:28:59;;;;;;;2.83;2.33;;;19.50;95.40;;;;;;5061244;28;20199;-77
2022/07/31 07:31:24;;;;;;;2.90;2.20;;;19.50;77.70;;;;;;5050055;28;20167;-76
2022/07/31 07:33:50;;;;;;;3.43;2.67;;;19.60;70.90;;;;;;5050027;28;20212;-70
2022/07/31 07:36:16;;;;;;;5.20;2.50;;;19.70;36.60;;;;;;5049083;28;20167;-76
2022/07/31 07:38:42;;;;;;;4.30;2.03;;;19.70;38.80;;;;;;5048880;28;20429;-69
2022/07/31 07:41:08;;;;;;;2.80;2.60;;;19.80;48.70;;;;;;5050954;28;20281;-69
2022/07/31 07:43:33;;;;;;;2.93;2.23;;;20.00;50.80;;;;;;5066211;28;20184;-76
2022/07/31 07:45:59;;;;;;;2.27;2.07;;;20.20;50.10;;;;;;5068033;28;20175;-73
2022/07/31 07:48:25;;;;;;;2.70;2.60;;;20.40;18.10;;;;;;5068984;28;20329;-70
2022/07/31 07:50:50;;;;;;;2.10;2.00;;;20.60;5.70;;;;;;5051952;28;20665;-70
2022/07/31 07:53:16;;;;;;;2.23;2.03;;;20.60;1.00;;;;;;5049698;28;20175;-69
2022/07/31 07:55:42;;;;;;;5.47;2.33;;;20.70;1.00;;;;;;5049394;28;20175;-72
2022/07/31 07:58:07;;;;;;;1.90;1.80;;;20.80;1.00;;;;;;5048143;28;20636;-70
2022/07/31 08:00:33;;;;;;;6.10;1.90;;;20.90;1.00;;;;;;5047315;28;20237;-69
2022/07/31 08:02:59;;;;;;;1.77;1.67;;;20.90;1.00;;;;;;5049736;28;20179;-69
2022/07/31 08:05:25;;;;;;;2.90;1.93;;;20.90;1.00;;;;;;5048474;28;20173;-69
2022/07/31 08:07:50;;;;;;;6.43;1.90;;;21.00;1.00;;;;;;5047039;28;20202;-69
2022/07/31 08:10:18;;;;;;;4.07;2.00;;;21.10;1.00;;;;;;5055088;28;20171;-69
2022/07/31 08:12:44;;;;;;;2.03;1.70;;;21.20;1.00;;;;;;5069162;28;20262;-77
2022/07/31 08:15:11;;;;;;;1.80;1.57;;;21.40;1.00;;;;;;5067172;28;20424;-77
2022/07/31 08:17:37;;;;;;;3.73;2.13;;;21.50;1.00;;;;;;5068309;28;20421;-77
2022/07/31 08:20:03;;;;;;;2.70;2.27;;;21.50;1.00;;;;;;5052617;28;20434;-70
2022/07/31 08:22:29;;;;;;;3.67;1.90;;;21.50;1.00;;;;;;5035900;28;20201;-77
2022/07/31 08:24:55;;;;;;;4.40;2.20;;;21.50;1.00;;;;;;5049355;28;20429;-76
2022/07/31 08:27:24;;;;;;;3.73;1.90;;;21.70;1.00;;;;;;5053443;28;20228;-70
2022/07/31 08:29:55;;;;;;;2.43;1.77;;;21.80;1.00;;;;;;5048981;28;20803;-69
2022/07/31 08:32:22;;;;;;;2.80;2.60;;;21.90;1.00;;;;;;5034400;28;20406;-76
2022/07/31 08:34:48;;;;;;;2.10;2.00;;;21.90;1.00;;;;;;5033928;28;20406;-76
2022/07/31 08:37:17;;;;;;;2.93;2.53;;;22.00;1.00;;;;;;5033213;28;20521;-69
2022/07/31 08:39:45;;;;;;;4.70;2.60;;;22.10;1.00;;;;;;5034810;28;20180;-75
2022/07/31 08:42:11;;;;;;;3.20;2.93;;;22.20;1.00;;;;;;5034287;28;20810;-68
2022/07/31 08:44:38;;;;;;;2.80;2.60;;;22.20;1.00;;;;;;5035361;28;20398;-75
2022/07/31 08:47:08;;;;;;;9.33;2.70;;;22.20;1.00;;;;;;5034387;28;20806;-70
2022/07/31 08:49:39;;;;;;;2.47;2.27;;;22.30;1.00;;;;;;5033405;28;20438;-69
2022/07/31 08:52:06;;;;;;;3.00;2.80;;;22.40;1.00;;;;;;5034858;28;20431;-69
2022/07/31 08:54:34;;;;;;;2.70;2.40;;;22.40;1.00;;;;;;5033885;28;20414;-68
2022/07/31 08:57:01;;;;;;;3.90;2.80;;;22.40;1.00;;;;;;5034603;28;20433;-76
2022/07/31 08:59:26;;;;;;;2.63;2.33;;;22.40;1.00;;;;;;5034329;28;20406;-74
2022/07/31 09:01:55;;;;;;;4.23;2.90;;;22.50;1.00;;;;;;5047825;28;20428;-69
2022/07/31 09:04:22;;;;;;;7.30;4.27;;;22.70;1.00;;;;;;5054973;28;20599;-75
2022/07/31 09:06:48;;;;;;;3.73;3.33;;;22.70;1.00;;;;;;5054103;28;20398;-77
2022/07/31 09:09:16;;;;;;;3.77;2.80;;;22.80;1.00;;;;;;5054471;28;20472;-71
2022/07/31 09:11:52;;;;;;;3.70;2.60;;;22.80;1.00;;;;;;5034039;28;20536;-69
2022/07/31 09:14:25;;;;;;;3.40;2.93;;;22.90;1.00;;;;;;5033764;28;20877;-77
2022/07/31 09:16:51;;;;;;;3.17;2.97;;;23.00;1.00;;;;;;5032559;28;20425;-76
2022/07/31 09:19:17;;;;;;;11.10;3.63;;;23.00;1.00;;;;;;5034661;28;20790;-77
2022/07/31 09:21:44;;;;;;;4.33;2.70;;;23.00;1.00;;;;;;5051523;28;20182;-75
2022/07/31 09:24:12;;;;;;;3.23;3.03;;;23.00;1.00;;;;;;5053521;28;20248;-69
2022/07/31 09:26:41;;;;;;;3.20;3.00;;;23.10;1.00;;;;;;5052434;28;20414;-77
2022/07/31 09:29:10;;;;;;;7.00;3.13;;;23.30;1.00;;;;;;5050354;28;20490;-71
2022/07/31 09:31:37;;;;;;;4.03;2.70;;;23.20;1.00;;;;;;5053445;28;20398;-68
2022/07/31 09:34:03;;;;;;;4.37;2.83;;;23.30;1.00;;;;;;5054374;28;20408;-69
2022/07/31 09:36:29;;;;;;;2.93;2.73;;;23.40;1.00;;;;;;5053482;28;20402;-77
2022/07/31 09:38:55;;;;;;;3.03;2.83;;;23.60;1.00;;;;;;5049296;28;20452;-68
2022/07/31 09:41:22;;;;;;;3.57;2.87;;;23.80;1.00;;;;;;5034376;28;20398;-69
2022/07/31 09:43:56;;;;;;;3.30;3.10;;;23.90;1.00;;;;;;5034511;28;20409;-69
2022/07/31 09:46:21;;;;;;;8.83;3.80;;;24.10;1.00;;;;;;5032951;28;20405;-76
2022/07/31 09:48:54;;;;;;;2.60;2.37;;;24.00;1.00;;;;;;5033408;28;20471;-70
2022/07/31 09:51:21;;;;;;;4.23;2.67;;;23.90;1.00;;;;;;5034201;28;20255;-77
2022/07/31 09:53:52;;;;;;;2.60;2.37;;;24.10;1.00;;;;;;5034130;28;20410;-76
2022/07/31 09:56:38;;;;;;;3.13;2.67;;;24.20;1.00;;;;;;5033462;28;20403;-76
2022/07/31 09:59:05;;;;;;;2.63;2.30;;;24.20;1.00;;;;;;5033007;28;20507;-73
2022/07/31 10:01:35;;;;;;;2.90;2.70;;;24.20;1.00;;;;;;5033935;28;20406;-69
2022/07/31 10:04:02;;;;;;;3.93;3.07;;;24.20;1.00;;;;;;5033375;28;20467;-68
2022/07/31 10:06:33;;;;;;;3.00;2.80;;;24.30;1.00;;;;;;5033214;28;20402;-75
2022/07/31 10:09:01;;;;;;;2.10;2.00;;;24.40;1.00;;;;;;5033522;28;20608;-75
2022/07/31 10:11:29;;;;;;;2.37;2.00;;;24.40;1.00;;;;;;5050317;28;20433;-77
2022/07/31 10:13:58;;;;;;;3.87;3.50;;;24.70;1.00;;;;;;5050235;28;20429;-81
2022/07/31 10:16:27;;;;;;;2.83;2.60;;;24.90;1.00;;;;;;5051721;28;20423;-75
2022/07/31 10:18:57;;;;;;;2.80;2.50;;;25.00;1.00;;;;;;5053575;28;20475;-78
2022/07/31 10:21:31;;;;;;;4.13;2.63;;;24.80;1.00;;;;;;5052299;28;20424;-79
2022/07/31 10:23:59;;;;;;;3.93;2.80;;;24.70;1.00;;;;;;5044808;28;20456;-78
2022/07/31 10:26:25;;;;;;;3.17;2.87;;;24.60;1.00;;;;;;5051323;28;20478;-79
2022/07/31 10:28:51;;;;;;;4.30;3.30;;;24.50;1.00;;;;;;5053333;28;20453;-75
2022/07/31 10:31:17;;;;;;;4.00;2.80;;;24.60;1.00;;;;;;5052450;28;20397;-77
2022/07/31 10:33:46;;;;;;;4.40;2.87;;;24.50;1.00;;;;;;5050323;28;20440;-72
2022/07/31 10:36:19;;;;;;;2.60;2.40;;;24.60;1.00;;;;;;5052587;28;20475;-76
2022/07/31 10:39:02;;;;;;;2.80;2.60;;;24.70;1.00;;;;;;5053143;28;20447;-67
2022/07/31 10:41:59;;;;;;;4.03;3.40;;;24.90;1.00;;;;;;5053369;28;20759;-75
2022/07/31 10:44:35;;;;;;;3.00;2.80;;;24.80;1.00;;;;;;5032579;28;20809;-76
2022/07/31 10:47:21;;;;;;;2.60;2.50;;;25.10;1.00;;;;;;5032533;28;20758;-70
2022/07/31 10:49:48;;;;;;;2.57;2.37;;;25.80;1.00;;;;;;5033087;28;20521;-77
2022/07/31 10:52:30;;;;;;;2.53;2.30;;;26.40;1.00;;;;;;5032393;28;20782;-73
2022/07/31 10:54:58;;;;;;;4.57;2.33;;;26.90;1.00;;;;;;5033278;28;20390;-78
2022/07/31 10:57:31;;;;;;;4.60;2.40;;;27.50;1.00;;;;;;5032171;28;20468;-79
2022/07/31 11:00:10;;;;;;;2.80;2.43;;;27.50;99.90;;;;;;5032983;28;20386;-77
2022/07/31 11:02:37;;;;;;;3.03;2.70;;;27.10;99.90;;;;;;5031733;28;20441;-76
2022/07/31 11:05:28;;;;;;;3.50;2.70;;;26.80;99.90;;;;;;5032986;28;20887;-77
2022/07/31 11:08:02;;;;;;;4.17;2.70;;;27.10;99.90;;;;;;5031516;28;20559;-76
2022/07/31 11:10:28;;;;;;;3.33;2.70;;;27.20;99.90;;;;;;5032967;28;20886;-78
2022/07/31 11:13:09;;;;;;;2.90;2.50;;;27.00;99.90;;;;;;5036297;28;20431;-70
2022/07/31 11:15:38;;;;;;;3.10;2.50;;;26.80;99.90;;;;;;5051989;28;20440;-76
2022/07/31 11:18:18;;;;;;;5.40;2.23;;;26.10;99.90;;;;;;5051725;28;20441;-70
2022/07/31 11:20:57;;;;;;;5.30;2.00;;;25.90;99.90;;;;;;5050922;28;20409;-68
2022/07/31 11:23:28;;;;;;;1.97;1.87;;;25.90;99.90;;;;;;5041880;28;20429;-76
2022/07/31 11:25:59;;;;;;;3.93;2.40;;;25.80;99.90;;;;;;5032625;28;20461;-68
2022/07/31 11:28:25;;;;;;;4.13;2.17;;;25.50;99.90;;;;;;5032233;28;20454;-73
2022/07/31 11:30:52;;;;;;;5.20;2.30;;;25.30;99.90;;;;;;5032952;28;20768;-76
2022/07/31 11:33:27;;;;;;;2.20;1.90;;;25.40;99.90;;;;;;5031969;28;20430;-68
2022/07/31 11:35:54;;;;;;;2.40;2.20;;;25.50;99.90;;;;;;5032482;28;20406;-75
2022/07/31 11:38:26;;;;;;;5.43;2.07;;;25.80;99.90;;;;;;5030183;28;20522;-76
2022/07/31 11:40:52;;;;;;;3.00;2.70;;;26.00;99.90;;;;;;5032162;28;20433;-76
2022/07/31 11:43:18;;;;;;;2.40;2.20;;;26.10;99.90;;;;;;5030998;28;20950;-75
2022/07/31 11:45:48;;;;;;;2.73;1.80;;;25.90;99.90;;;;;;5032732;28;20172;-69
2022/07/31 11:48:15;;;;;;;2.73;2.43;;;25.90;99.90;;;;;;5031846;28;20218;-68
2022/07/31 11:50:42;;;;;;;2.90;2.23;;;25.90;99.90;;;;;;5032643;28;20401;-74
2022/07/31 11:53:08;;;;;;;2.40;2.30;;;26.10;99.90;;;;;;5030761;28;20426;-78
2022/07/31 11:55:51;;;;;;;2.97;2.60;;;26.50;99.90;;;;;;5047761;28;20425;-77
2022/07/31 11:58:20;;;;;;;4.43;2.23;;;27.20;99.90;;;;;;5055575;28;20421;-74
2022/07/31 12:00:56;;;;;;;3.00;2.40;;;27.70;99.90;;;;;;5054962;28;20409;-70
2022/07/31 12:03:36;;;;;;;3.47;2.00;;;28.20;99.90;;;;;;5051152;28;20490;-77
2022/07/31 12:06:04;;;;;;;1.87;1.77;;;28.50;99.90;;;;;;5055337;28;20487;-73
2022/07/31 12:08:30;;;;;;;2.90;2.60;;;28.20;99.90;;;;;;5054424;28;20989;-78
2022/07/31 12:10:58;;;;;;;3.13;1.97;;;28.50;99.90;;;;;;5046770;28;20495;-78
2022/07/31 12:13:24;;;;;;;2.37;2.00;;;28.70;99.90;;;;;;5034778;28;20442;-78
2022/07/31 12:15:56;;;;;;;2.50;2.30;;;28.50;99.90;;;;;;5033801;28;20946;-80
2022/07/31 12:18:22;;;;;;;5.57;3.03;;;28.20;99.90;;;;;;5033920;28;20516;-80
2022/07/31 12:20:56;;;;;;;6.20;2.33;;;27.80;99.90;;;;;;5035606;28;20509;-81
2022/07/31 12:23:22;;;;;;;5.80;2.20;;;27.60;99.90;;;;;;5034436;28;20176;-77
2022/07/31 12:25:47;;;;;;;2.70;2.30;;;27.30;99.90;;;;;;5035616;28;20449;-81
2022/07/31 12:28:14;;;;;;;2.50;2.30;;;27.20;99.90;;;;;;5033698;28;20469;-77
2022/07/31 12:30:41;;;;;;;2.80;2.43;;;27.50;99.90;;;;;;5035595;28;20203;-81
2022/07/31 12:33:08;;;;;;;3.90;2.40;;;27.80;99.90;;;;;;5034228;28;20405;-79
2022/07/31 12:35:43;;;;;;;2.50;2.30;;;27.70;99.90;;;;;;5033545;28;20475;-81
2022/07/31 12:38:09;;;;;;;2.97;2.37;;;27.60;99.90;;;;;;5034874;28;21014;-76
2022/07/31 12:40:35;;;;;;;5.40;2.60;;;27.20;99.90;;;;;;5035380;28;20402;-78
2022/07/31 12:43:01;;;;;;;2.80;2.00;;;26.90;99.90;;;;;;5034444;28;20552;-79
2022/07/31 12:45:35;;;;;;;2.33;2.13;;;26.50;99.90;;;;;;5035472;28;20174;-77